Time;durP1;ratioP1;P1;durP2;ratioP2;P2;SDS_P1;SDS_P2;PMS_P1;PMS_P2;Temp;Humidity;BMP_temperature;BMP_pressure;BME280_temperature;BME280_humidity;BME280_pressure;Samples;Min_cycle;Max_cycle;Signal;HPM_P1;HPM_P2
2023/10/28 00:00:46;;;;;;;5.18;2.80;;;;;;;6.65;60.82;99570.44;4985034;28;20547;-72
2023/10/28 00:03:12;;;;;;;4.95;2.47;;;;;;;6.66;60.63;99569.53;4979529;28;20042;-72
2023/10/28 00:05:38;;;;;;;3.38;2.10;;;;;;;6.84;59.89;99579.09;4983465;28;20064;-72
2023/10/28 00:08:04;;;;;;;4.07;2.38;;;;;;;6.84;59.85;99576.50;4974193;28;20233;-71
2023/10/28 00:10:31;;;;;;;4.18;2.88;;;;;;;7.03;59.46;99579.09;4979410;28;20034;-71
2023/10/28 00:12:57;;;;;;;4.85;2.40;;;;;;;7.01;59.90;99587.88;4981546;28;20541;-71
2023/10/28 00:15:24;;;;;;;4.15;2.40;;;;;;;7.00;59.24;99583.59;4970504;28;20121;-71
2023/10/28 00:17:50;;;;;;;3.50;2.28;;;;;;;7.01;59.51;99585.28;4980127;28;20042;-70
2023/10/28 00:20:19;;;;;;;3.75;2.58;;;;;;;7.05;59.37;99586.84;4978266;28;20034;-70
2023/10/28 00:22:46;;;;;;;5.78;3.03;;;;;;;6.80;59.83;99581.91;4977892;28;20050;-70
2023/10/28 00:25:13;;;;;;;4.72;2.83;;;;;;;6.90;59.83;99584.00;4979823;28;20030;-70
2023/10/28 00:27:40;;;;;;;4.07;2.50;;;;;;;6.79;60.22;99586.25;4977629;28;20046;-75
2023/10/28 00:30:10;;;;;;;5.65;2.90;;;;;;;6.82;60.16;99585.25;4979988;28;20037;-69
2023/10/28 00:32:39;;;;;;;3.90;2.63;;;;;;;6.81;60.09;99588.78;4974543;28;20045;-70
2023/10/28 00:35:07;;;;;;;4.03;2.00;;;;;;;6.71;60.49;99583.16;4976043;28;20049;-69
2023/10/28 00:37:32;;;;;;;5.07;2.85;;;;;;;6.72;60.68;99584.84;4982713;28;20081;-70
2023/10/28 00:39:59;;;;;;;6.55;3.17;;;;;;;6.53;61.00;99597.81;4983930;28;20026;-70
2023/10/28 00:42:25;;;;;;;3.88;2.70;;;;;;;6.56;61.23;99594.22;4954778;28;20441;-70
2023/10/28 00:44:50;;;;;;;6.63;3.95;;;;;;;6.67;61.08;99581.63;4978971;28;20038;-70
2023/10/28 00:47:17;;;;;;;5.93;3.45;;;;;;;6.71;60.93;99575.38;4967258;28;20038;-71
2023/10/28 00:49:43;;;;;;;5.63;3.38;;;;;;;6.69;60.85;99579.78;4970246;28;20069;-70
2023/10/28 00:52:09;;;;;;;5.78;3.88;;;;;;;6.68;60.89;99578.09;4977967;28;20620;-71
2023/10/28 00:54:35;;;;;;;7.22;3.47;;;;;;;6.70;60.99;99571.91;4986414;28;20034;-71
2023/10/28 00:57:02;;;;;;;8.25;3.70;;;;;;;6.75;60.82;99574.31;4975487;28;20409;-71
2023/10/28 00:59:29;;;;;;;7.60;4.28;;;;;;;6.69;60.68;99578.03;4984873;28;20121;-70
2023/10/28 01:01:55;;;;;;;4.75;3.13;;;;;;;6.64;60.74;99577.41;4976467;28;20080;-70
2023/10/28 01:04:21;;;;;;;6.70;3.58;;;;;;;6.69;60.89;99579.78;4977053;28;20190;-70
2023/10/28 01:06:47;;;;;;;6.57;4.53;;;;;;;6.63;61.50;99580.88;4982672;28;20052;-70
2023/10/28 01:09:12;;;;;;;7.47;4.30;;;;;;;6.68;60.94;99578.09;4963555;28;20044;-70
2023/10/28 01:11:39;;;;;;;7.57;3.55;;;;;;;6.84;60.55;99576.50;4983064;28;20323;-70
2023/10/28 01:14:07;;;;;;;7.20;4.03;;;;;;;6.90;60.37;99572.78;4975056;28;20046;-70
2023/10/28 01:16:35;;;;;;;7.40;3.88;;;;;;;6.88;60.44;99575.44;4980997;28;20218;-71
2023/10/28 01:19:00;;;;;;;7.53;4.60;;;;;;;6.78;60.33;99578.53;4988479;28;20105;-70
2023/10/28 01:21:26;;;;;;;7.45;4.72;;;;;;;6.80;60.55;99572.38;4979421;28;20037;-68
2023/10/28 01:23:55;;;;;;;8.13;4.68;;;;;;;6.85;60.59;99570.38;4975454;28;20038;-68
2023/10/28 01:26:22;;;;;;;7.38;4.63;;;;;;;6.86;60.39;99571.22;4975325;28;20401;-68
2023/10/28 01:28:48;;;;;;;8.82;4.78;;;;;;;6.74;60.66;99577.00;4974474;28;20053;-68
2023/10/28 01:31:14;;;;;;;9.05;4.32;;;;;;;6.73;60.81;99568.38;4975897;28;20344;-69
2023/10/28 01:33:40;;;;;;;8.50;5.40;;;;;;;6.66;61.21;99575.59;4979351;28;20057;-68
2023/10/28 01:36:06;;;;;;;11.27;4.65;;;;;;;6.55;61.55;99571.75;4974051;28;21068;-68
2023/10/28 01:38:32;;;;;;;10.85;5.97;;;;;;;6.59;61.71;99573.31;4968342;28;20509;-69
2023/10/28 01:40:57;;;;;;;9.10;4.97;;;;;;;6.65;61.38;99573.03;4968706;28;20551;-69
2023/10/28 01:43:23;;;;;;;9.23;5.25;;;;;;;6.64;61.56;99566.16;4974537;28;20038;-69
2023/10/28 01:45:49;;;;;;;9.57;5.25;;;;;;;6.53;61.93;99574.44;4973220;28;20038;-70
2023/10/28 01:48:14;;;;;;;11.40;6.18;;;;;;;6.73;61.40;99570.97;4976010;28;20050;-70
2023/10/28 01:50:41;;;;;;;9.10;5.45;;;;;;;6.69;61.45;99569.41;4985791;28;20082;-70
2023/10/28 01:53:07;;;;;;;9.88;5.13;;;;;;;6.45;62.01;99563.53;4974156;28;21413;-71
2023/10/28 01:55:33;;;;;;;8.63;4.65;;;;;;;6.50;62.02;99559.81;4971699;28;20028;-70
2023/10/28 01:57:59;;;;;;;14.48;6.45;;;;;;;6.63;61.69;99562.72;4975533;28;20037;-71
2023/10/28 02:00:30;;;;;;;11.23;5.68;;;;;;;6.62;61.74;99565.38;4979515;28;20731;-71
2023/10/28 02:02:56;;;;;;;10.70;6.40;;;;;;;6.72;61.51;99566.66;4989331;28;21038;-71
2023/10/28 02:05:25;;;;;;;12.48;6.57;;;;;;;6.74;61.50;99575.22;4977436;28;20030;-71
2023/10/28 02:07:50;;;;;;;12.60;6.53;;;;;;;6.73;61.66;99568.38;4982850;28;20296;-71
2023/10/28 02:10:17;;;;;;;11.88;6.35;;;;;;;6.68;61.76;99568.53;4976891;28;20073;-71
2023/10/28 02:12:45;;;;;;;14.02;7.38;;;;;;;6.65;62.05;99578.25;4962604;28;20441;-71
2023/10/28 02:15:14;;;;;;;13.30;6.97;;;;;;;6.62;62.15;99570.56;4977962;28;20064;-71
2023/10/28 02:17:39;;;;;;;12.68;6.95;;;;;;;6.67;61.88;99571.22;4978929;28;20503;-67
2023/10/28 02:20:06;;;;;;;15.95;6.40;;;;;;;6.57;62.17;99562.97;4985633;28;20026;-68
2023/10/28 02:22:32;;;;;;;12.65;6.65;;;;;;;6.60;62.19;99568.06;4963690;28;20045;-67
2023/10/28 02:24:58;;;;;;;14.10;5.75;;;;;;;6.38;62.81;99573.34;4980179;28;20471;-68
2023/10/28 02:27:23;;;;;;;16.27;7.82;;;;;;;6.61;62.32;99566.28;4984463;28;20046;-67
2023/10/28 02:29:49;;;;;;;14.80;7.68;;;;;;;6.43;62.52;99561.00;4981938;28;20034;-68
2023/10/28 02:32:15;;;;;;;13.38;6.93;;;;;;;6.44;63.11;99567.03;4986589;28;20033;-68
2023/10/28 02:34:43;;;;;;;14.05;7.32;;;;;;;6.69;62.14;99566.81;4981989;28;20111;-67
2023/10/28 02:37:10;;;;;;;13.73;6.93;;;;;;;6.79;61.97;99562.03;4992348;28;20499;-67
2023/10/28 02:39:36;;;;;;;12.90;6.53;;;;;;;6.81;61.90;99566.25;4980944;28;20045;-67
2023/10/28 02:42:01;;;;;;;14.75;6.75;;;;;;;6.69;62.09;99554.66;4977614;28;20034;-68
2023/10/28 02:44:29;;;;;;;13.43;7.10;;;;;;;6.75;61.98;99557.88;4978802;28;20040;-66
2023/10/28 02:46:55;;;;;;;12.45;6.22;;;;;;;6.72;61.84;99558.03;4979043;28;20092;-68
2023/10/28 02:49:21;;;;;;;14.45;7.45;;;;;;;6.74;61.98;99551.84;4980304;28;20369;-68
2023/10/28 02:51:46;;;;;;;15.50;6.65;;;;;;;6.50;62.42;99554.63;4988680;28;20715;-67
2023/10/28 02:54:14;;;;;;;10.43;5.93;;;;;;;6.55;62.50;99561.38;4977613;28;20037;-68
2023/10/28 02:56:40;;;;;;;10.57;6.10;;;;;;;6.61;62.65;99561.09;4981801;28;20034;-68
2023/10/28 02:59:06;;;;;;;11.73;6.57;;;;;;;6.71;62.49;99565.00;4984573;28;20042;-67
2023/10/28 03:01:36;;;;;;;12.13;6.18;;;;;;;6.66;62.47;99561.72;4983479;28;20158;-67
2023/10/28 03:04:02;;;;;;;10.55;6.07;;;;;;;6.43;63.03;99566.19;4973890;28;20113;-68
2023/10/28 03:06:28;;;;;;;10.27;5.25;;;;;;;6.57;62.87;99556.97;4967821;28;20026;-68
2023/10/28 03:08:54;;;;;;;10.70;5.85;;;;;;;6.54;62.88;99559.69;4981643;28;20516;-68
2023/10/28 03:11:20;;;;;;;11.07;5.38;;;;;;;6.55;63.08;99553.59;4980932;28;20436;-67
2023/10/28 03:13:46;;;;;;;9.60;5.15;;;;;;;6.65;62.68;99555.72;4985670;28;20038;-67
2023/10/28 03:16:12;;;;;;;10.35;5.18;;;;;;;6.56;62.77;99552.69;4961257;28;22445;-66
2023/10/28 03:18:37;;;;;;;8.70;5.03;;;;;;;6.65;62.76;99553.09;4979636;28;20025;-70
2023/10/28 03:21:04;;;;;;;8.73;4.68;;;;;;;6.56;62.97;99557.88;4980199;28;20088;-69
2023/10/28 03:23:30;;;;;;;7.90;4.45;;;;;;;6.58;62.82;99562.09;4988000;28;20034;-68
2023/10/28 03:25:56;;;;;;;7.28;4.57;;;;;;;6.64;62.65;99561.81;4980190;28;20190;-68
2023/10/28 03:28:22;;;;;;;10.70;5.43;;;;;;;6.75;62.64;99556.13;4978013;28;20447;-68
2023/10/28 03:30:47;;;;;;;10.80;5.03;;;;;;;6.61;62.61;99553.31;4984556;28;20682;-68
2023/10/28 03:33:13;;;;;;;10.48;4.82;;;;;;;6.73;62.42;99554.50;4976968;28;21370;-68
2023/10/28 03:35:38;;;;;;;9.85;5.28;;;;;;;6.65;62.73;99560.06;4979002;28;20030;-68
2023/10/28 03:38:04;;;;;;;11.55;5.60;;;;;;;6.67;62.44;99553.88;4967951;28;20171;-69
2023/10/28 03:40:29;;;;;;;10.75;5.85;;;;;;;6.44;63.21;99561.84;4994238;28;20628;-69
2023/10/28 03:42:55;;;;;;;9.40;4.72;;;;;;;6.57;62.48;99562.97;4973325;28;20038;-69
2023/10/28 03:45:20;;;;;;;12.45;5.88;;;;;;;6.68;62.61;99567.69;4987503;28;20042;-65
2023/10/28 03:47:46;;;;;;;13.05;6.53;;;;;;;6.62;62.78;99570.56;4978447;28;20034;-68
2023/10/28 03:50:11;;;;;;;10.85;4.75;;;;;;;6.80;62.19;99554.19;4982179;28;20026;-68
2023/10/28 03:52:37;;;;;;;12.77;6.22;;;;;;;6.76;62.48;99559.59;4976150;28;20046;-68
2023/10/28 03:55:03;;;;;;;13.65;6.35;;;;;;;6.67;62.63;99561.69;4978134;28;20033;-72
2023/10/28 03:57:28;;;;;;;11.65;6.53;;;;;;;6.63;62.82;99557.53;4979730;28;20701;-73
2023/10/28 03:59:54;;;;;;;11.80;6.55;;;;;;;6.75;62.41;99566.50;4979581;28;20040;-73
2023/10/28 04:02:20;;;;;;;12.70;6.40;;;;;;;6.66;62.78;99554.81;4969273;28;20068;-73
2023/10/28 04:04:46;;;;;;;10.75;5.90;;;;;;;6.70;62.67;99560.69;4986854;28;20050;-71
2023/10/28 04:07:11;;;;;;;12.13;5.95;;;;;;;6.68;62.79;99568.53;4981161;28;20030;-71
2023/10/28 04:09:37;;;;;;;15.32;6.60;;;;;;;6.70;62.52;99561.53;4984155;28;20042;-71
2023/10/28 04:12:05;;;;;;;12.10;5.78;;;;;;;6.76;62.66;99568.22;4978309;28;20045;-71
2023/10/28 04:14:34;;;;;;;10.10;5.88;;;;;;;6.63;63.12;99564.47;4979279;28;20030;-71
2023/10/28 04:16:59;;;;;;;11.60;6.22;;;;;;;6.59;63.15;99565.53;4975586;28;20034;-71
2023/10/28 04:19:25;;;;;;;10.40;5.47;;;;;;;6.67;62.99;99566.88;4979710;28;20303;-73
2023/10/28 04:21:51;;;;;;;14.90;6.90;;;;;;;6.65;62.65;99562.66;4981584;28;20060;-73
2023/10/28 04:24:16;;;;;;;12.63;5.80;;;;;;;6.62;62.76;99557.59;4973555;28;20720;-70
2023/10/28 04:26:42;;;;;;;14.35;7.20;;;;;;;6.62;63.09;99552.38;4979802;28;20034;-71
2023/10/28 04:29:08;;;;;;;17.35;7.05;;;;;;;6.72;62.79;99552.84;4979739;28;20035;-71
2023/10/28 04:31:34;;;;;;;14.13;6.82;;;;;;;6.63;63.00;99548.91;4968537;28;20026;-71
2023/10/28 04:34:02;;;;;;;10.63;5.72;;;;;;;6.87;62.45;99546.97;4965972;28;20041;-71
2023/10/28 04:36:28;;;;;;;13.68;6.68;;;;;;;6.78;62.48;99550.81;4991187;28;20030;-70
2023/10/28 04:38:53;;;;;;;15.43;7.32;;;;;;;6.60;62.87;99554.25;4984952;28;20603;-73
2023/10/28 04:41:19;;;;;;;13.15;6.65;;;;;;;6.82;62.52;99546.31;4978041;28;20042;-69
2023/10/28 04:43:44;;;;;;;14.15;7.55;;;;;;;6.79;62.58;99549.88;4978300;28;20050;-70
2023/10/28 04:46:10;;;;;;;14.43;7.40;;;;;;;6.84;62.16;99547.94;4981458;28;20403;-68
2023/10/28 04:48:36;;;;;;;14.25;7.10;;;;;;;6.93;62.13;99544.06;4978892;28;20560;-72
2023/10/28 04:51:02;;;;;;;13.95;6.43;;;;;;;6.86;62.44;99537.47;4975558;28;20382;-76
2023/10/28 04:53:28;;;;;;;12.57;6.35;;;;;;;6.80;62.81;99540.38;4964300;28;20037;-72
2023/10/28 04:55:55;;;;;;;14.27;7.88;;;;;;;6.83;62.45;99542.81;4980111;28;20080;-71
2023/10/28 04:58:21;;;;;;;16.08;8.02;;;;;;;6.95;62.57;99544.00;4979444;28;20030;-72
2023/10/28 05:00:47;;;;;;;13.35;7.00;;;;;;;6.95;62.11;99531.00;4967345;28;20591;-70
2023/10/28 05:03:12;;;;;;;14.27;7.82;;;;;;;6.76;62.54;99529.25;4973059;28;20117;-70
2023/10/28 05:05:38;;;;;;;19.55;7.63;;;;;;;6.72;62.92;99538.09;4980004;28;20141;-71
2023/10/28 05:08:04;;;;;;;15.57;8.75;;;;;;;6.71;63.00;99539.03;4964252;28;20104;-70
2023/10/28 05:10:31;;;;;;;21.08;8.27;;;;;;;6.91;62.21;99546.75;4979674;28;20134;-70
2023/10/28 05:12:56;;;;;;;17.33;8.45;;;;;;;6.85;62.66;99538.38;4980112;28;20041;-70
2023/10/28 05:15:22;;;;;;;15.82;8.27;;;;;;;6.93;62.31;99545.81;4980673;28;20033;-72
2023/10/28 05:17:47;;;;;;;14.43;7.50;;;;;;;6.90;62.53;99541.59;4979040;28;20448;-71
2023/10/28 05:20:13;;;;;;;15.25;7.65;;;;;;;7.05;62.11;99550.47;4977549;28;20105;-70
2023/10/28 05:22:39;;;;;;;14.77;7.95;;;;;;;6.97;62.42;99547.38;4974661;28;20498;-70
2023/10/28 05:25:09;;;;;;;14.23;8.30;;;;;;;6.90;62.81;99550.25;4976503;28;20038;-69
2023/10/28 05:27:35;;;;;;;16.65;8.20;;;;;;;7.00;62.17;99549.81;4976903;28;20046;-69
2023/10/28 05:30:01;;;;;;;15.88;7.90;;;;;;;6.85;62.84;99548.78;4977725;28;20061;-69
2023/10/28 05:32:27;;;;;;;16.90;7.32;;;;;;;7.00;62.44;99547.22;4978764;28;20034;-69
2023/10/28 05:34:56;;;;;;;14.57;6.93;;;;;;;7.03;62.49;99552.28;4980768;28;20187;-69
2023/10/28 05:37:21;;;;;;;14.07;7.30;;;;;;;7.01;62.20;99554.09;4978214;28;20123;-69
2023/10/28 05:39:47;;;;;;;14.20;7.15;;;;;;;6.87;62.67;99553.00;4976901;28;20030;-69
2023/10/28 05:42:14;;;;;;;13.88;7.20;;;;;;;7.01;62.44;99561.91;4953501;28;20029;-70
2023/10/28 05:44:40;;;;;;;12.55;7.35;;;;;;;7.05;62.27;99566.88;4982593;28;20524;-70
2023/10/28 05:47:07;;;;;;;14.30;7.20;;;;;;;7.03;62.47;99563.50;4975434;28;20038;-68
2023/10/28 05:49:33;;;;;;;14.98;7.40;;;;;;;6.93;62.79;99566.59;4959835;28;20490;-71
2023/10/28 05:51:59;;;;;;;14.02;7.72;;;;;;;7.05;62.53;99566.06;4964101;28;20042;-71
2023/10/28 05:54:25;;;;;;;19.35;7.28;;;;;;;6.95;62.96;99559.56;4959027;28;20136;-69
2023/10/28 05:56:50;;;;;;;16.15;6.93;;;;;;;6.98;62.88;99564.66;4960408;28;20066;-71
2023/10/28 05:59:16;;;;;;;13.43;6.80;;;;;;;6.76;63.58;99560.41;4964796;28;20035;-68
2023/10/28 06:01:41;;;;;;;13.98;7.00;;;;;;;7.04;62.61;99569.53;4960557;28;20542;-72
2023/10/28 06:04:07;;;;;;;14.25;7.55;;;;;;;7.08;62.61;99561.53;4956307;28;20084;-69
2023/10/28 06:06:32;;;;;;;14.73;7.43;;;;;;;6.89;62.90;99561.56;4977598;28;20058;-71
2023/10/28 06:08:58;;;;;;;20.27;6.72;;;;;;;7.00;62.73;99557.59;4968518;28;20141;-68
2023/10/28 06:11:23;;;;;;;13.95;6.97;;;;;;;7.07;62.60;99564.22;4963718;28;21533;-72
2023/10/28 06:13:49;;;;;;;15.73;7.85;;;;;;;7.12;62.74;99560.47;4960138;28;20057;-71
2023/10/28 06:16:15;;;;;;;18.52;8.70;;;;;;;6.94;62.88;99566.53;4966346;28;20031;-72
2023/10/28 06:18:40;;;;;;;15.88;6.55;;;;;;;7.08;62.43;99573.69;4964051;28;20589;-73
2023/10/28 06:21:06;;;;;;;19.55;8.65;;;;;;;7.03;62.92;99583.47;4956917;28;20093;-72
2023/10/28 06:23:32;;;;;;;18.02;8.27;;;;;;;7.12;62.39;99581.28;4966039;28;20954;-72
2023/10/28 06:25:57;;;;;;;17.20;8.05;;;;;;;7.10;62.52;99587.47;4961747;28;20441;-72
2023/10/28 06:28:23;;;;;;;17.23;7.80;;;;;;;7.16;62.42;99589.78;4956609;28;20042;-72
2023/10/28 06:30:49;;;;;;;16.27;7.30;;;;;;;7.07;62.61;99592.81;4959496;28;20050;-72
2023/10/28 06:33:15;;;;;;;17.38;8.10;;;;;;;7.23;62.55;99600.72;4957412;28;20035;-71
2023/10/28 06:35:41;;;;;;;18.05;8.13;;;;;;;7.36;61.81;99596.66;4950510;28;20041;-72
2023/10/28 06:38:09;;;;;;;14.60;7.32;;;;;;;7.35;61.79;99601.91;4954086;28;20132;-72
2023/10/28 06:40:37;;;;;;;17.77;8.20;;;;;;;7.17;62.35;99599.25;4961446;28;20137;-72
2023/10/28 06:43:04;;;;;;;15.65;7.80;;;;;;;7.33;62.28;99602.84;4959394;28;20044;-71
2023/10/28 06:45:29;;;;;;;19.05;8.68;;;;;;;7.28;62.25;99604.78;4955489;28;20509;-72
2023/10/28 06:47:55;;;;;;;18.52;7.95;;;;;;;7.35;62.02;99609.72;4958720;28;20050;-72
2023/10/28 06:50:21;;;;;;;21.67;8.88;;;;;;;7.24;62.23;99603.25;4957372;28;20395;-72
2023/10/28 06:52:49;;;;;;;27.35;8.27;;;;;;;7.25;62.27;99604.09;4956797;28;20650;-71
2023/10/28 06:55:16;;;;;;;18.45;7.93;;;;;;;7.32;62.36;99601.13;4956447;28;20553;-73
2023/10/28 06:57:42;;;;;;;15.48;8.10;;;;;;;7.29;62.28;99605.66;4957279;28;20549;-72
2023/10/28 07:00:13;;;;;;;16.83;8.00;;;;;;;7.19;62.56;99610.41;4959598;28;20031;-71
2023/10/28 07:02:43;;;;;;;24.42;8.20;;;;;;;7.33;62.38;99610.63;4957235;28;20105;-71
2023/10/28 07:05:10;;;;;;;19.42;7.60;;;;;;;7.38;62.32;99619.94;4958541;28;20031;-71
2023/10/28 07:07:39;;;;;;;20.38;8.02;;;;;;;7.40;62.09;99624.19;4960382;28;20053;-72
2023/10/28 07:10:05;;;;;;;20.00;8.52;;;;;;;7.44;62.26;99620.50;4962919;28;20031;-74
2023/10/28 07:12:31;;;;;;;18.80;8.27;;;;;;;7.29;62.31;99627.28;4955723;28;20454;-70
2023/10/28 07:14:58;;;;;;;21.42;8.27;;;;;;;7.39;62.37;99627.69;4958064;28;20061;-72
2023/10/28 07:17:24;;;;;;;21.45;8.63;;;;;;;7.32;62.44;99629.72;4955552;28;20058;-71
2023/10/28 07:19:50;;;;;;;19.67;9.25;;;;;;;7.34;62.43;99627.06;4956188;28;20030;-71
2023/10/28 07:22:17;;;;;;;19.98;9.48;;;;;;;7.40;62.12;99633.72;4963770;28;20529;-73
2023/10/28 07:24:48;;;;;;;15.30;7.35;;;;;;;7.50;62.21;99629.78;4966864;28;20064;-69
2023/10/28 07:27:14;;;;;;;23.10;9.20;;;;;;;7.51;62.07;99626.25;4970220;28;20038;-69
2023/10/28 07:29:40;;;;;;;17.23;9.00;;;;;;;7.51;62.33;99634.06;4961336;28;20085;-67
2023/10/28 07:32:06;;;;;;;21.08;8.02;;;;;;;7.43;62.28;99638.81;4957440;28;20638;-69
2023/10/28 07:34:32;;;;;;;23.70;9.65;;;;;;;7.42;62.44;99642.28;4957185;28;20560;-69
2023/10/28 07:37:03;;;;;;;19.17;9.40;;;;;;;7.32;62.82;99644.50;4948305;28;20042;-69
2023/10/28 07:39:29;;;;;;;19.77;9.10;;;;;;;7.42;62.60;99647.50;4970640;28;21645;-69
2023/10/28 07:41:56;;;;;;;21.60;9.93;;;;;;;7.53;62.32;99642.63;4957141;28;20104;-69
2023/10/28 07:44:21;;;;;;;22.88;11.02;;;;;;;7.44;62.41;99654.31;4944454;28;20047;-70
2023/10/28 07:46:47;;;;;;;21.33;8.80;;;;;;;7.58;62.39;99653.72;4961374;28;20053;-67
2023/10/28 07:49:13;;;;;;;21.70;9.60;;;;;;;7.62;61.98;99657.84;4957065;28;20061;-70
2023/10/28 07:51:39;;;;;;;24.10;9.82;;;;;;;7.57;62.26;99659.81;4959702;28;20540;-68
2023/10/28 07:54:06;;;;;;;28.77;9.85;;;;;;;7.43;62.78;99668.22;4957340;28;20039;-69
2023/10/28 07:56:32;;;;;;;22.17;9.75;;;;;;;7.56;62.24;99667.69;4956688;28;20045;-69
2023/10/28 07:58:59;;;;;;;20.73;10.40;;;;;;;7.51;62.29;99658.31;4957507;28;20070;-70
2023/10/28 08:01:31;;;;;;;25.77;10.30;;;;;;;7.63;62.26;99667.34;4956897;28;20677;-69
2023/10/28 08:03:57;;;;;;;26.88;10.98;;;;;;;7.57;62.39;99667.63;4959319;28;20695;-69
2023/10/28 08:06:24;;;;;;;22.52;9.90;;;;;;;7.73;62.05;99673.81;4957456;28;20031;-69
2023/10/28 08:08:53;;;;;;;22.65;9.90;;;;;;;7.67;62.13;99673.25;4958974;28;20133;-66
2023/10/28 08:11:21;;;;;;;25.98;8.93;;;;;;;7.62;62.58;99672.59;4960993;28;20039;-69
2023/10/28 08:13:47;;;;;;;25.77;10.63;;;;;;;7.59;62.72;99676.19;4958971;28;20108;-69
2023/10/28 08:16:20;;;;;;;30.08;12.07;;;;;;;7.62;62.61;99670.00;4962400;28;20030;-70
2023/10/28 08:18:52;;;;;;;24.50;11.65;;;;;;;7.84;62.05;99682.84;4965700;28;20053;-68
2023/10/28 08:21:18;;;;;;;25.88;10.05;;;;;;;7.59;62.50;99681.41;4956391;28;20036;-68
2023/10/28 08:23:44;;;;;;;26.38;9.82;;;;;;;7.85;62.08;99685.38;4958113;28;20057;-68
2023/10/28 08:26:11;;;;;;;25.13;10.18;;;;;;;7.85;62.13;99685.38;4957287;28;21011;-68
2023/10/28 08:28:37;;;;;;;24.42;10.63;;;;;;;7.78;62.24;99685.72;4954274;28;20110;-69
2023/10/28 08:31:07;;;;;;;23.70;11.25;;;;;;;7.93;62.08;99692.81;4958251;28;20196;-68
2023/10/28 08:33:34;;;;;;;28.08;11.25;;;;;;;7.96;61.95;99682.28;4942257;28;21105;-69
2023/10/28 08:36:03;;;;;;;25.90;11.35;;;;;;;7.99;61.81;99676.06;4954974;28;20088;-69
2023/10/28 08:38:29;;;;;;;28.40;12.57;;;;;;;8.07;61.82;99682.59;4954498;28;20034;-69
2023/10/28 08:40:58;;;;;;;34.92;11.05;;;;;;;8.07;61.98;99687.78;4960039;28;20107;-69
2023/10/28 08:43:25;;;;;;;26.98;11.52;;;;;;;8.12;61.93;99691.00;4955398;28;20796;-69
2023/10/28 08:45:53;;;;;;;24.67;12.48;;;;;;;8.16;61.80;99689.13;4963936;28;20038;-69
2023/10/28 08:48:21;;;;;;;35.38;12.77;;;;;;;8.30;61.90;99685.81;4961131;28;20034;-69
2023/10/28 08:50:52;;;;;;;33.03;12.23;;;;;;;8.32;62.08;99687.44;4965020;28;20042;-68
2023/10/28 08:53:18;;;;;;;24.48;11.27;;;;;;;8.47;61.44;99688.44;4953055;28;20043;-68
2023/10/28 08:55:48;;;;;;;28.17;11.43;;;;;;;8.51;61.56;99692.56;4959457;28;20465;-68
2023/10/28 08:58:16;;;;;;;45.10;13.00;;;;;;;8.40;61.72;99687.03;4958560;28;20039;-69
2023/10/28 09:00:43;;;;;;;27.23;10.93;;;;;;;8.39;61.77;99685.38;4965494;28;20049;-69
2023/10/28 09:03:10;;;;;;;29.98;13.65;;;;;;;8.48;61.73;99681.47;4954613;28;21290;-69
2023/10/28 09:05:38;;;;;;;28.35;12.57;;;;;;;8.49;61.55;99689.19;4953637;28;21802;-69
2023/10/28 09:08:03;;;;;;;25.15;12.07;;;;;;;8.64;61.50;99682.34;4953094;28;20043;-69
2023/10/28 09:10:29;;;;;;;24.38;12.90;;;;;;;8.71;61.21;99685.53;4961891;28;20040;-69
2023/10/28 09:12:55;;;;;;;27.90;13.55;;;;;;;8.57;61.42;99687.03;4954243;28;20622;-68
2023/10/28 09:15:21;;;;;;;34.53;12.30;;;;;;;8.72;61.75;99687.22;4955731;28;20031;-69
2023/10/28 09:17:47;;;;;;;33.17;13.38;;;;;;;8.73;61.15;99688.91;4957993;28;20050;-69
2023/10/28 09:20:13;;;;;;;24.25;11.43;;;;;;;9.00;60.72;99689.22;4956119;28;20030;-69
2023/10/28 09:22:42;;;;;;;25.33;11.15;;;;;;;9.09;60.80;99703.56;4953288;28;20046;-69
2023/10/28 09:25:10;;;;;;;24.42;10.85;;;;;;;9.07;60.37;99695.81;4959031;28;20038;-72
2023/10/28 09:27:35;;;;;;;27.35;11.82;;;;;;;9.02;60.16;99696.97;4965696;28;20066;-68
2023/10/28 09:30:06;;;;;;;21.38;9.90;;;;;;;9.28;60.21;99698.22;4945421;28;20039;-69
2023/10/28 09:32:33;;;;;;;25.83;10.85;;;;;;;9.21;59.64;99700.31;4956282;28;20145;-70
2023/10/28 09:35:03;;;;;;;25.88;11.07;;;;;;;9.28;59.68;99704.28;4957088;28;20433;-69
2023/10/28 09:37:33;;;;;;;22.50;10.18;;;;;;;9.45;59.36;99699.91;4957714;28;20046;-70
2023/10/28 09:40:00;;;;;;;24.25;10.10;;;;;;;9.55;58.96;99704.53;4958838;28;20030;-69
2023/10/28 09:42:30;;;;;;;21.73;10.07;;;;;;;9.54;58.47;99713.31;4957157;28;20044;-70
2023/10/28 09:44:55;;;;;;;17.83;8.32;;;;;;;9.53;59.13;99710.78;4962567;28;20519;-70
2023/10/28 09:47:22;;;;;;;18.98;8.88;;;;;;;9.51;58.73;99704.81;4957452;28;20053;-70
2023/10/28 09:49:53;;;;;;;17.25;9.50;;;;;;;9.50;58.77;99713.53;4960504;28;20055;-70
2023/10/28 09:52:24;;;;;;;15.88;9.13;;;;;;;9.63;58.66;99705.88;4958763;28;20035;-70
2023/10/28 09:54:59;;;;;;;17.00;9.05;;;;;;;9.48;58.44;99710.19;4961616;28;20042;-70
2023/10/28 09:57:25;;;;;;;20.23;9.35;;;;;;;9.39;59.02;99708.91;4960264;28;20047;-70
2023/10/28 09:59:51;;;;;;;14.05;9.05;;;;;;;9.32;58.05;99711.00;4959211;28;20038;-70
2023/10/28 10:02:33;;;;;;;16.17;8.35;;;;;;;9.29;58.52;99703.34;4963753;28;20038;-70
2023/10/28 10:05:05;;;;;;;17.98;8.82;;;;;;;8.94;59.42;99703.44;4958560;28;20122;-70
2023/10/28 10:07:32;;;;;;;8.55;6.30;;;;;;;9.28;58.79;99704.28;4957037;28;20043;-70
2023/10/28 10:10:13;;;;;;;14.48;8.38;;;;;;;9.35;58.86;99705.63;4956723;28;20035;-70
2023/10/28 10:12:45;;;;;;;14.10;8.33;;;;;;;9.58;58.46;99706.97;4952025;28;20861;-70
2023/10/28 10:15:15;;;;;;;;;;;;;;;9.22;58.45;99708.97;4963544;28;20065;-70
2023/10/28 10:17:55;;;;;;;9.55;6.30;;;;;;;9.63;57.82;99711.94;4941079;28;22289;-69
2023/10/28 10:20:27;;;;;;;13.00;6.97;;;;;;;9.74;57.52;99700.91;4954577;28;20537;-70
2023/10/28 10:22:58;;;;;;;12.38;6.70;;;;;;;9.95;57.35;99704.16;4955062;28;20149;-70
2023/10/28 10:25:54;;;;;;;13.40;6.60;;;;;;;9.86;57.03;99704.69;4954907;28;20891;-70
2023/10/28 10:28:23;;;;;;;10.10;6.40;;;;;;;9.93;56.96;99703.41;4952358;28;20129;-70
2023/10/28 10:30:48;;;;;;;11.68;6.40;;;;;;;9.85;57.11;99692.53;4956334;28;20042;-69
2023/10/28 10:33:27;;;;;;;10.90;6.10;;;;;;;9.87;57.08;99706.34;4956497;28;20506;-69
2023/10/28 10:35:52;;;;;;;10.90;5.63;;;;;;;9.76;56.39;99710.34;4964484;28;20125;-69
2023/10/28 10:38:28;;;;;;;11.10;5.72;;;;;;;9.84;56.29;99706.53;4956342;28;20039;-69
2023/10/28 10:40:58;;;;;;;10.82;5.30;;;;;;;9.72;56.58;99708.84;4950841;28;20062;-69
2023/10/28 10:43:31;;;;;;;9.18;6.20;;;;;;;9.84;56.47;99706.53;4954437;28;20572;-69
2023/10/28 10:46:00;;;;;;;11.27;6.97;;;;;;;9.75;56.32;99708.69;4942372;28;20537;-69
2023/10/28 10:48:26;;;;;;;13.30;5.65;;;;;;;9.66;56.71;99703.13;4954802;28;20069;-69
2023/10/28 10:50:54;;;;;;;8.98;5.85;;;;;;;9.88;56.29;99714.09;4958336;28;20114;-69
2023/10/28 10:53:22;;;;;;;10.68;5.30;;;;;;;9.97;56.25;99702.31;4952724;28;20082;-71
2023/10/28 10:55:48;;;;;;;14.65;6.65;;;;;;;10.09;55.28;99706.81;4955258;28;20433;-69
2023/10/28 10:58:14;;;;;;;7.28;4.97;;;;;;;9.83;55.50;99715.25;4961255;28;20145;-69
2023/10/28 11:00:39;;;;;;;9.00;5.40;;;;;;;9.82;55.53;99714.44;4953845;28;20043;-69
2023/10/28 11:03:07;;;;;;;11.70;5.00;;;;;;;9.70;56.08;99718.53;4954029;28;20050;-69
2023/10/28 11:05:33;;;;;;;10.30;4.80;;;;;;;9.10;56.85;99710.47;4955279;28;20580;-70
2023/10/28 11:07:59;;;;;;;8.35;5.00;;;;;;;9.59;56.12;99707.84;4953241;28;20093;-68
2023/10/28 11:10:25;;;;;;;9.55;4.97;;;;;;;9.79;55.74;99707.63;4954015;28;20532;-69
2023/10/28 11:12:52;;;;;;;8.98;5.20;;;;;;;9.98;56.13;99709.19;4957247;28;20053;-68
2023/10/28 11:15:21;;;;;;;8.10;4.72;;;;;;;9.85;55.34;99705.59;4958742;28;20035;-70
2023/10/28 11:17:48;;;;;;;9.82;4.70;;;;;;;9.79;55.48;99699.78;4953830;28;20058;-70
2023/10/28 11:20:19;;;;;;;11.00;4.63;;;;;;;9.86;55.84;99694.25;4964563;28;20592;-70
2023/10/28 11:22:45;;;;;;;8.33;4.63;;;;;;;9.91;55.30;99697.41;4965799;28;20304;-71
2023/10/28 11:25:11;;;;;;;6.05;4.80;;;;;;;10.02;55.60;99701.09;4977033;28;20540;-71
2023/10/28 11:27:38;;;;;;;7.28;4.82;;;;;;;10.19;55.61;99702.78;4976377;28;20137;-70
2023/10/28 11:30:05;;;;;;;13.15;6.88;;;;;;;10.45;55.20;99697.81;4980061;28;20136;-71
2023/10/28 11:32:37;;;;;;;6.47;4.97;;;;;;;10.40;55.10;99697.25;4963670;28;20095;-71